Terminal Aerodrome Forecast
Issued by NWS Charleston, SC

Home | Current Version | Previous Version | Text Only | Print | Product List | Glossary On
Versions: 1 2 3 4 5 6 7 8 9 10 11 12 13 14 15 16 17 18 19 20 21 22
000
FTUS42 KCHS 020157 AAA
TAFSAV
TAF AMD
KSAV 020157Z 0202/0224 24005KT P6SM VCTS SCT035CB SCT150 BKN250
     FM020500 24003KT P6SM FEW150 BKN250
     FM021500 26009KT P6SM SCT040 BKN250
     FM021800 25011G16KT P6SM VCTS SCT040CB BKN150=

USA.gov is the U.S. government's official web portal to all federal, state and local government web resources and services.